createdAt,value
2023-04-16T00:03:35.886Z,3.24
2023-04-16T00:06:03.602Z,3.12
2023-04-16T00:08:30.638Z,3.66
2023-04-16T00:10:57.838Z,3.98
2023-04-16T00:13:27.114Z,3.69
2023-04-16T00:15:54.010Z,3.96
2023-04-16T00:18:21.663Z,4.35
2023-04-16T00:20:49.282Z,4.62
2023-04-16T00:23:16.452Z,4.78
2023-04-16T00:25:43.768Z,4.72
2023-04-16T00:28:11.141Z,4.81
2023-04-16T00:30:38.500Z,4.79
2023-04-16T00:33:05.593Z,4.92
2023-04-16T00:35:32.612Z,4.90
2023-04-16T00:37:59.547Z,4.86
2023-04-16T00:40:29.422Z,5.12
2023-04-16T00:42:56.455Z,5.07
2023-04-16T00:45:23.934Z,5.13
2023-04-16T00:47:50.807Z,5.16
2023-04-16T00:50:18.269Z,5.25
2023-04-16T00:52:47.485Z,5.40
2023-04-16T00:55:15.807Z,5.46
2023-04-16T00:57:42.899Z,5.50
2023-04-16T01:00:10.518Z,5.49
2023-04-16T01:02:37.827Z,5.61
2023-04-16T01:05:05.758Z,5.49
2023-04-16T01:07:32.973Z,5.51
2023-04-16T01:09:59.874Z,5.52
2023-04-16T01:12:26.832Z,5.61
2023-04-16T01:14:54.140Z,5.36
2023-04-16T01:17:20.952Z,5.10
2023-04-16T01:19:48.104Z,5.11
2023-04-16T01:22:15.028Z,4.84
2023-04-16T01:24:42.028Z,4.90
2023-04-16T01:27:10.994Z,4.76
2023-04-16T01:29:37.994Z,4.79
2023-04-16T01:32:06.194Z,4.66
2023-04-16T01:34:38.008Z,4.38
2023-04-16T01:37:05.673Z,4.23
2023-04-16T01:39:32.735Z,4.15
2023-04-16T01:41:59.791Z,4.15
2023-04-16T01:44:28.254Z,4.52
2023-04-16T01:46:55.505Z,5.07
2023-04-16T01:49:24.280Z,5.10
2023-04-16T01:51:51.779Z,4.90
2023-04-16T01:54:18.647Z,5.29
2023-04-16T01:56:45.610Z,5.71
2023-04-16T01:59:12.865Z,5.83
2023-04-16T02:01:42.841Z,6.01
2023-04-16T02:04:11.139Z,6.00
2023-04-16T02:06:38.328Z,6.04
2023-04-16T02:09:05.738Z,6.16
2023-04-16T02:11:33.019Z,6.30
2023-04-16T02:14:00.446Z,6.31
2023-04-16T02:16:27.814Z,6.25
2023-04-16T02:19:00.520Z,6.08
2023-04-16T02:21:32.857Z,5.69
2023-04-16T02:24:00.377Z,5.46
2023-04-16T02:26:30.685Z,5.51
2023-04-16T02:29:03.749Z,5.43
2023-04-16T02:31:38.691Z,5.37
2023-04-16T02:34:07.283Z,5.90
2023-04-16T02:36:34.454Z,5.56
2023-04-16T02:39:01.849Z,5.29
2023-04-16T02:41:28.910Z,5.12
2023-04-16T02:43:56.626Z,4.95
2023-04-16T02:46:24.063Z,5.39
2023-04-16T02:48:51.247Z,5.59
2023-04-16T02:51:18.304Z,5.16
2023-04-16T02:53:46.192Z,4.71
2023-04-16T02:56:14.428Z,4.86
2023-04-16T02:58:41.459Z,5.36
2023-04-16T03:01:08.436Z,5.83
2023-04-16T03:03:35.744Z,5.49
2023-04-16T03:06:02.969Z,4.58
2023-04-16T03:08:29.837Z,4.58
2023-04-16T03:10:58.104Z,5.01
2023-04-16T03:13:25.395Z,5.14
2023-04-16T03:15:52.396Z,5.05
2023-04-16T03:18:19.780Z,4.73
2023-04-16T03:20:53.224Z,4.34
2023-04-16T03:23:20.731Z,4.47
2023-04-16T03:25:48.236Z,5.37
2023-04-16T03:28:18.788Z,5.86
2023-04-16T03:30:53.224Z,5.41
2023-04-16T03:33:21.132Z,4.67
2023-04-16T03:35:58.396Z,4.29
2023-04-16T03:38:28.922Z,3.91
2023-04-16T03:40:57.883Z,4.21
2023-04-16T03:43:25.732Z,4.54
2023-04-16T03:45:52.949Z,4.85
2023-04-16T03:48:23.390Z,5.12
2023-04-16T03:50:50.932Z,5.61
2023-04-16T03:53:20.707Z,5.47
2023-04-16T03:55:52.102Z,5.68
2023-04-16T03:58:20.436Z,5.66
2023-04-16T04:00:48.173Z,5.63
2023-04-16T04:03:20.219Z,5.59
2023-04-16T04:05:50.116Z,5.36
2023-04-16T04:08:24.376Z,5.24
2023-04-16T04:10:52.201Z,5.00
2023-04-16T04:13:21.432Z,4.53
2023-04-16T04:15:49.973Z,4.93
2023-04-16T04:18:17.838Z,4.86
2023-04-16T04:20:45.456Z,4.86
2023-04-16T04:23:15.825Z,4.90
2023-04-16T04:25:46.223Z,4.92
2023-04-16T04:28:14.229Z,4.88
2023-04-16T04:30:42.214Z,4.72
2023-04-16T04:33:09.787Z,4.71
2023-04-16T04:35:38.847Z,4.84
2023-04-16T04:38:06.067Z,4.68
2023-04-16T04:40:33.903Z,4.05
2023-04-16T04:43:01.556Z,4.63
2023-04-16T04:45:31.688Z,5.18
2023-04-16T04:47:59.490Z,5.24
2023-04-16T04:50:27.124Z,4.86
2023-04-16T04:52:54.537Z,5.18
2023-04-16T04:55:23.852Z,5.41
2023-04-16T04:57:51.615Z,5.37
2023-04-16T05:00:20.053Z,4.71
2023-04-16T05:02:53.277Z,4.14
2023-04-16T05:05:21.057Z,4.34
2023-04-16T05:07:49.181Z,4.08
2023-04-16T05:10:16.526Z,4.01
2023-04-16T05:12:43.690Z,3.74
2023-04-16T05:15:11.181Z,3.63
2023-04-16T05:17:38.398Z,4.13
2023-04-16T05:20:05.692Z,3.81
2023-04-16T05:22:33.116Z,4.10
2023-04-16T05:25:00.402Z,4.63
2023-04-16T05:27:27.366Z,5.15
2023-04-16T05:29:54.973Z,5.32
2023-04-16T05:32:23.392Z,5.15
2023-04-16T05:34:51.084Z,5.72
2023-04-16T05:37:18.426Z,6.02
2023-04-16T05:39:45.977Z,5.79
2023-04-16T05:42:12.991Z,5.70
2023-04-16T05:44:40.838Z,5.51
2023-04-16T05:47:09.572Z,5.92
2023-04-16T05:49:39.912Z,6.08
2023-04-16T05:52:07.552Z,5.44
2023-04-16T05:54:34.571Z,5.05
2023-04-16T05:57:02.597Z,4.94
2023-04-16T05:59:30.966Z,5.26
2023-04-16T06:01:58.296Z,5.01
2023-04-16T06:04:26.006Z,5.15
2023-04-16T06:06:53.295Z,5.58
2023-04-16T06:09:20.100Z,5.70
2023-04-16T06:11:47.244Z,5.41
2023-04-16T06:14:14.137Z,5.48
2023-04-16T06:16:41.370Z,5.54
2023-04-16T06:19:09.081Z,5.41
2023-04-16T06:21:37.991Z,5.57
2023-04-16T06:24:05.200Z,5.62
2023-04-16T06:26:33.318Z,5.38
2023-04-16T06:29:01.841Z,6.03
2023-04-16T06:31:30.196Z,5.80
2023-04-16T06:33:57.332Z,5.62
2023-04-16T06:36:24.698Z,5.71
2023-04-16T06:38:51.876Z,5.90
2023-04-16T06:41:19.179Z,6.22
2023-04-16T06:43:46.446Z,6.50
2023-04-16T06:46:13.383Z,6.45
2023-04-16T06:48:41.260Z,6.26
2023-04-16T06:51:08.775Z,6.34
2023-04-16T06:53:37.662Z,6.47
2023-04-16T06:56:07.076Z,6.11
2023-04-16T06:58:34.570Z,6.78
2023-04-16T07:01:02.759Z,6.81
2023-04-16T07:03:30.080Z,6.84
2023-04-16T07:05:57.884Z,6.83
2023-04-16T07:08:25.205Z,7.27
2023-04-16T07:10:54.360Z,7.09
2023-04-16T07:13:22.174Z,7.25
2023-04-16T07:15:49.367Z,7.57
2023-04-16T07:18:16.892Z,7.69
2023-04-16T07:20:44.285Z,7.74
2023-04-16T07:23:11.392Z,8.40
2023-04-16T07:25:39.330Z,8.18
2023-04-16T07:28:06.734Z,7.84
2023-04-16T07:30:36.922Z,7.81
2023-04-16T07:33:04.434Z,7.74
2023-04-16T07:35:32.206Z,8.63
2023-04-16T07:37:59.420Z,8.63
2023-04-16T07:40:27.988Z,7.63
2023-04-16T07:42:55.833Z,7.90
2023-04-16T07:45:24.592Z,8.15
2023-04-16T07:47:51.759Z,7.52
2023-04-16T07:50:19.685Z,8.01
2023-04-16T07:52:47.705Z,7.80
2023-04-16T07:55:15.523Z,7.64
2023-04-16T07:57:42.662Z,7.36
2023-04-16T08:00:12.449Z,8.34
2023-04-16T08:02:44.602Z,8.92
2023-04-16T08:05:13.597Z,9.52
2023-04-16T08:07:40.981Z,10.22
2023-04-16T08:10:09.118Z,9.78
2023-04-16T08:12:36.755Z,8.48
2023-04-16T08:15:05.917Z,9.02
2023-04-16T08:17:34.673Z,9.43
2023-04-16T08:20:02.403Z,9.85
2023-04-16T08:22:30.237Z,9.99
2023-04-16T08:24:57.935Z,8.92
2023-04-16T08:27:25.097Z,9.61
2023-04-16T08:29:52.090Z,9.21
2023-04-16T08:32:19.281Z,8.88
2023-04-16T08:34:47.358Z,8.52
2023-04-16T08:37:14.674Z,8.99
2023-04-16T08:39:41.862Z,8.88
2023-04-16T08:42:29.403Z,9.40
2023-04-16T08:45:18.348Z,9.17
2023-04-16T08:47:50.712Z,9.94
2023-04-16T08:50:23.526Z,10.02
2023-04-16T08:53:01.152Z,9.68
2023-04-16T08:55:36.530Z,9.63
2023-04-16T08:58:11.244Z,9.87
2023-04-16T09:00:41.393Z,10.29
2023-04-16T09:03:10.627Z,10.84
2023-04-16T09:05:38.909Z,11.33
2023-04-16T09:08:07.147Z,11.25
2023-04-16T09:10:35.766Z,11.46
2023-04-16T09:13:03.132Z,11.86
2023-04-16T09:15:31.481Z,10.82
2023-04-16T09:17:59.724Z,11.11
2023-04-16T09:20:26.751Z,10.95
2023-04-16T09:22:53.957Z,10.52
2023-04-16T09:25:22.674Z,11.18
2023-04-16T09:27:51.403Z,11.37
2023-04-16T09:30:23.265Z,10.74
2023-04-16T09:32:52.974Z,11.32
2023-04-16T09:35:20.993Z,11.75
2023-04-16T09:37:58.825Z,13.24
2023-04-16T09:40:28.320Z,12.59
2023-04-16T09:43:00.967Z,12.83
2023-04-16T09:45:34.096Z,13.08
2023-04-16T09:48:06.166Z,13.98
2023-04-16T09:50:33.251Z,14.52
2023-04-16T09:53:03.843Z,14.51
2023-04-16T09:55:31.260Z,14.10
2023-04-16T09:58:02.316Z,14.20
2023-04-16T10:00:32.170Z,14.17
2023-04-16T10:03:32.311Z,13.90
2023-04-16T10:06:17.828Z,14.67
2023-04-16T10:08:50.414Z,15.01
2023-04-16T10:11:20.392Z,14.01
2023-04-16T10:13:47.854Z,14.22
2023-04-16T10:16:15.229Z,14.10
2023-04-16T10:18:44.498Z,14.93
2023-04-16T10:21:12.856Z,15.20
2023-04-16T10:23:41.184Z,15.96
2023-04-16T10:26:08.892Z,16.46
2023-04-16T10:28:36.638Z,15.20
2023-04-16T10:31:08.806Z,15.96
2023-04-16T10:33:39.665Z,16.71
2023-04-16T10:36:15.265Z,17.33
2023-04-16T10:38:49.670Z,16.66
2023-04-16T10:41:16.882Z,16.53
2023-04-16T10:43:46.666Z,16.80
2023-04-16T10:46:24.553Z,16.05
2023-04-16T10:48:56.194Z,14.77
2023-04-16T10:51:42.453Z,16.18
2023-04-16T10:54:11.425Z,16.76
2023-04-16T10:56:39.362Z,16.75
2023-04-16T10:59:10.337Z,17.09
2023-04-16T11:01:43.306Z,17.84
2023-04-16T11:04:20.094Z,18.37
2023-04-16T11:07:06.084Z,18.39
2023-04-16T11:10:05.191Z,17.11
2023-04-16T11:12:42.926Z,17.45
2023-04-16T11:15:22.379Z,16.65
2023-04-16T11:17:52.739Z,17.81
2023-04-16T11:20:23.504Z,16.53
2023-04-16T11:22:53.673Z,17.51
2023-04-16T11:25:39.643Z,18.76
2023-04-16T11:28:06.945Z,18.33
2023-04-16T11:30:39.339Z,18.13
2023-04-16T11:33:09.048Z,16.99
2023-04-16T11:35:37.606Z,18.02
2023-04-16T11:38:06.448Z,17.87
2023-04-16T11:40:34.443Z,18.04
2023-04-16T11:43:17.449Z,17.80
2023-04-16T11:46:07.512Z,18.51
2023-04-16T11:48:51.293Z,18.45
2023-04-16T11:51:20.136Z,19.07
2023-04-16T11:53:50.209Z,18.74
2023-04-16T11:56:28.819Z,19.31
2023-04-16T11:59:13.773Z,18.96
2023-04-16T12:01:45.821Z,18.14
2023-04-16T12:04:18.800Z,19.07
2023-04-16T12:07:05.295Z,18.94
2023-04-16T12:09:37.165Z,18.38
2023-04-16T12:12:07.322Z,16.49
2023-04-16T12:14:34.876Z,16.96
2023-04-16T12:17:19.800Z,17.23
2023-04-16T12:19:57.548Z,17.79
2023-04-16T12:22:36.974Z,17.84
2023-04-16T12:25:07.015Z,18.18
2023-04-16T12:27:52.782Z,18.73
2023-04-16T12:30:22.966Z,18.06
2023-04-16T12:32:52.778Z,18.38
2023-04-16T12:35:34.756Z,17.59
2023-04-16T12:38:03.757Z,16.96
2023-04-16T12:40:36.508Z,17.60
2023-04-16T12:43:13.381Z,16.12
2023-04-16T12:45:41.259Z,16.75
2023-04-16T12:48:08.792Z,14.51
2023-04-16T12:50:36.681Z,15.66
2023-04-16T12:53:04.480Z,14.94
2023-04-16T12:55:31.732Z,16.35
2023-04-16T12:57:59.483Z,16.31
2023-04-16T13:00:27.286Z,17.27
2023-04-16T13:02:55.175Z,16.20
2023-04-16T13:05:22.938Z,17.39
2023-04-16T13:07:50.434Z,17.70
2023-04-16T13:10:17.836Z,18.05
2023-04-16T13:12:46.731Z,17.60
2023-04-16T13:15:13.948Z,18.00
2023-04-16T13:17:41.162Z,16.88
2023-04-16T13:20:09.558Z,16.87
2023-04-16T13:22:39.739Z,16.42
2023-04-16T13:25:07.824Z,17.05
2023-04-16T13:27:35.219Z,17.90
2023-04-16T13:30:02.232Z,18.66
2023-04-16T13:32:29.515Z,18.34
2023-04-16T13:34:56.709Z,16.23
2023-04-16T13:37:24.444Z,17.24
2023-04-16T13:39:51.359Z,16.37
2023-04-16T13:42:18.513Z,15.50
2023-04-16T13:44:49.134Z,16.06
2023-04-16T13:47:17.248Z,16.68
2023-04-16T13:49:45.982Z,17.26
2023-04-16T13:52:13.276Z,16.40
2023-04-16T13:54:41.720Z,17.09
2023-04-16T13:57:19.889Z,17.58
2023-04-16T13:59:47.672Z,17.06
2023-04-16T14:02:19.158Z,18.00
2023-04-16T14:04:47.351Z,17.51
2023-04-16T14:07:15.517Z,17.77
2023-04-16T14:09:46.288Z,18.09
2023-04-16T14:12:13.321Z,16.47
2023-04-16T14:14:41.958Z,17.23
2023-04-16T14:17:09.161Z,18.55
2023-04-16T14:19:36.585Z,17.71
2023-04-16T14:22:03.970Z,18.96
2023-04-16T14:24:31.128Z,19.23
2023-04-16T14:26:59.165Z,19.66
2023-04-16T14:29:26.868Z,19.24
2023-04-16T14:31:55.092Z,19.43
2023-04-16T14:34:22.935Z,18.96
2023-04-16T14:36:52.803Z,19.14
2023-04-16T14:39:21.760Z,18.58
2023-04-16T14:41:48.774Z,18.50
2023-04-16T14:44:15.994Z,18.25
2023-04-16T14:46:46.858Z,18.53
2023-04-16T14:49:14.639Z,18.90
2023-04-16T14:51:42.639Z,18.84
2023-04-16T14:54:09.836Z,18.90
2023-04-16T14:56:36.749Z,18.83
2023-04-16T14:59:04.827Z,18.68
2023-04-16T15:01:33.692Z,18.19
2023-04-16T15:04:03.147Z,17.92
2023-04-16T15:06:30.551Z,17.81
2023-04-16T15:09:00.553Z,17.49
2023-04-16T15:11:28.775Z,17.21
2023-04-16T15:13:56.323Z,17.49
2023-04-16T15:16:24.163Z,17.09
2023-04-16T15:18:51.650Z,16.67
2023-04-16T15:21:19.069Z,16.61
2023-04-16T15:23:46.067Z,16.34
2023-04-16T15:26:13.157Z,16.32
2023-04-16T15:28:40.795Z,16.18
2023-04-16T15:31:09.002Z,15.98
2023-04-16T15:33:36.251Z,16.12
2023-04-16T15:36:04.260Z,15.80
2023-04-16T15:38:31.821Z,15.95
2023-04-16T15:41:00.842Z,15.89
2023-04-16T15:43:29.805Z,15.83
2023-04-16T15:45:57.543Z,15.83
2023-04-16T15:48:25.348Z,16.21
2023-04-16T15:50:53.433Z,16.12
2023-04-16T15:53:21.808Z,16.34
2023-04-16T15:55:52.696Z,16.07
2023-04-16T15:58:21.075Z,15.69
2023-04-16T16:00:50.340Z,15.72
2023-04-16T16:03:18.634Z,16.15
2023-04-16T16:05:48.231Z,16.13
2023-04-16T16:08:15.964Z,16.35
2023-04-16T16:10:43.370Z,16.56
2023-04-16T16:13:13.296Z,16.62
2023-04-16T16:15:44.171Z,16.99
2023-04-16T16:18:11.194Z,17.09
2023-04-16T16:20:39.071Z,17.35
2023-04-16T16:23:08.962Z,17.09
2023-04-16T16:25:38.576Z,16.64
2023-04-16T16:28:06.800Z,16.43
2023-04-16T16:30:33.835Z,16.25
2023-04-16T16:33:01.614Z,16.19
2023-04-16T16:35:29.394Z,16.19
2023-04-16T16:37:57.399Z,16.06
2023-04-16T16:40:25.238Z,15.78
2023-04-16T16:42:53.315Z,15.37
2023-04-16T16:45:21.003Z,15.25
2023-04-16T16:47:48.962Z,15.13
2023-04-16T16:50:16.941Z,15.21
2023-04-16T16:52:44.846Z,14.91
2023-04-16T16:55:12.116Z,14.81
2023-04-16T16:57:39.709Z,14.82
2023-04-16T17:00:16.766Z,14.54
2023-04-16T17:02:44.403Z,14.32
2023-04-16T17:05:12.555Z,14.11
2023-04-16T17:07:40.546Z,13.83
2023-04-16T17:10:11.553Z,13.94
2023-04-16T17:12:38.829Z,13.75
2023-04-16T17:15:06.078Z,13.46
2023-04-16T17:17:33.253Z,13.15
2023-04-16T17:20:01.564Z,13.02
2023-04-16T17:22:28.637Z,13.09
2023-04-16T17:24:58.266Z,12.66
2023-04-16T17:27:26.892Z,12.84
2023-04-16T17:30:00.232Z,12.75
2023-04-16T17:32:32.526Z,12.47
2023-04-16T17:35:00.236Z,12.65
2023-04-16T17:37:27.628Z,12.50
2023-04-16T17:39:55.570Z,12.32
2023-04-16T17:42:23.137Z,12.54
2023-04-16T17:44:50.413Z,12.15
2023-04-16T17:47:17.564Z,12.14
2023-04-16T17:49:45.585Z,12.19
2023-04-16T17:52:13.040Z,12.47
2023-04-16T17:54:40.365Z,12.23
2023-04-16T17:57:07.453Z,12.00
2023-04-16T17:59:34.691Z,11.79
2023-04-16T18:02:01.961Z,11.59
2023-04-16T18:04:29.284Z,11.33
2023-04-16T18:06:56.817Z,10.68
2023-04-16T18:09:24.444Z,11.09
2023-04-16T18:11:51.272Z,11.21
2023-04-16T18:14:20.232Z,11.34
2023-04-16T18:16:48.246Z,11.56
2023-04-16T18:19:18.811Z,11.36
2023-04-16T18:21:46.702Z,11.42
2023-04-16T18:24:14.023Z,11.43
2023-04-16T18:26:41.972Z,11.33
2023-04-16T18:29:09.327Z,11.17
2023-04-16T18:31:36.710Z,11.37
2023-04-16T18:34:06.508Z,11.32
2023-04-16T18:36:34.041Z,11.06
2023-04-16T18:39:02.676Z,11.22
2023-04-16T18:41:31.329Z,11.25
2023-04-16T18:43:59.182Z,11.02
2023-04-16T18:46:27.530Z,10.98
2023-04-16T18:48:55.116Z,10.69
2023-04-16T18:51:22.005Z,10.71
2023-04-16T18:53:49.230Z,10.64
2023-04-16T18:56:16.775Z,10.61
2023-04-16T18:58:44.240Z,10.58
2023-04-16T19:01:13.544Z,10.56
2023-04-16T19:03:50.827Z,10.27
2023-04-16T19:06:17.979Z,9.95
2023-04-16T19:08:45.251Z,10.07
2023-04-16T19:11:12.353Z,9.92
2023-04-16T19:13:40.101Z,9.79
2023-04-16T19:16:11.710Z,9.96
2023-04-16T19:18:39.547Z,9.99
2023-04-16T19:21:07.288Z,9.98
2023-04-16T19:23:34.426Z,9.93
2023-04-16T19:26:01.731Z,9.83
2023-04-16T19:28:29.259Z,9.83
2023-04-16T19:30:56.662Z,9.70
2023-04-16T19:33:24.025Z,9.67
2023-04-16T19:35:51.128Z,9.59
2023-04-16T19:38:18.308Z,9.55
2023-04-16T19:40:46.854Z,9.53
2023-04-16T19:43:14.851Z,9.48
2023-04-16T19:45:46.967Z,9.53
2023-04-16T19:48:14.959Z,9.43
2023-04-16T19:50:42.937Z,9.45
2023-04-16T19:53:11.335Z,9.36
2023-04-16T19:55:42.409Z,9.35
2023-04-16T19:58:10.031Z,9.29
2023-04-16T20:00:38.778Z,9.32
2023-04-16T20:03:06.463Z,9.27
2023-04-16T20:05:34.023Z,9.17
2023-04-16T20:08:01.525Z,9.13
2023-04-16T20:10:31.966Z,9.08
2023-04-16T20:13:00.000Z,8.93
2023-04-16T20:15:27.411Z,8.69
2023-04-16T20:17:56.296Z,8.41
2023-04-16T20:20:24.002Z,8.29
2023-04-16T20:22:51.278Z,8.12
2023-04-16T20:25:21.848Z,8.26
2023-04-16T20:27:49.001Z,8.18
2023-04-16T20:30:16.561Z,8.24
2023-04-16T20:32:45.332Z,8.34
2023-04-16T20:35:13.102Z,8.33
2023-04-16T20:37:43.089Z,8.35
2023-04-16T20:40:11.046Z,8.33
2023-04-16T20:42:38.282Z,8.44
2023-04-16T20:45:09.259Z,8.37
2023-04-16T20:47:36.605Z,8.25
2023-04-16T20:50:03.821Z,8.18
2023-04-16T20:52:31.076Z,8.14
2023-04-16T20:54:58.362Z,8.05
2023-04-16T20:57:28.090Z,8.06
2023-04-16T20:59:55.333Z,8.06
2023-04-16T21:02:24.299Z,7.99
2023-04-16T21:04:52.599Z,7.91
2023-04-16T21:07:19.912Z,7.79
2023-04-16T21:09:46.859Z,7.73
2023-04-16T21:12:13.999Z,7.63
2023-04-16T21:14:41.003Z,7.54
2023-04-16T21:17:08.050Z,7.43
2023-04-16T21:19:35.097Z,7.28
2023-04-16T21:22:02.926Z,7.25
2023-04-16T21:24:31.936Z,7.24
2023-04-16T21:26:58.876Z,7.06
2023-04-16T21:29:26.295Z,7.02
2023-04-16T21:31:53.816Z,6.91
2023-04-16T21:34:20.835Z,6.79
2023-04-16T21:36:47.642Z,6.61
2023-04-16T21:39:17.496Z,6.65
2023-04-16T21:41:44.347Z,6.75
2023-04-16T21:44:11.475Z,6.74
2023-04-16T21:46:38.265Z,6.68
2023-04-16T21:49:05.955Z,6.46
2023-04-16T21:51:32.868Z,6.52
2023-04-16T21:54:00.001Z,6.49
2023-04-16T21:56:27.555Z,6.17
2023-04-16T21:58:54.595Z,6.18
2023-04-16T22:01:22.124Z,6.03
2023-04-16T22:03:52.314Z,5.89
2023-04-16T22:06:20.723Z,5.71
2023-04-16T22:08:50.036Z,5.73
2023-04-16T22:11:19.117Z,5.61
2023-04-16T22:13:47.873Z,5.65
2023-04-16T22:16:15.641Z,5.72
2023-04-16T22:18:43.898Z,5.76
2023-04-16T22:21:11.523Z,5.86
2023-04-16T22:23:38.619Z,5.85
2023-04-16T22:26:05.522Z,5.71
2023-04-16T22:28:32.670Z,5.75
2023-04-16T22:31:00.037Z,5.77
2023-04-16T22:33:29.710Z,5.42
2023-04-16T22:35:56.793Z,4.76
2023-04-16T22:38:23.856Z,5.05
2023-04-16T22:40:50.916Z,5.31
2023-04-16T22:43:20.991Z,5.44
2023-04-16T22:45:48.126Z,5.58
2023-04-16T22:48:15.786Z,5.47
2023-04-16T22:50:48.785Z,5.44
2023-04-16T22:53:16.014Z,5.51
2023-04-16T22:55:42.970Z,5.59
2023-04-16T22:58:10.007Z,5.69
2023-04-16T23:00:37.195Z,5.78
2023-04-16T23:03:04.582Z,5.65
2023-04-16T23:05:31.625Z,5.86
2023-04-16T23:07:58.562Z,5.86
2023-04-16T23:10:26.123Z,5.89
2023-04-16T23:12:52.932Z,5.87
2023-04-16T23:15:20.270Z,5.86
2023-04-16T23:17:47.299Z,5.67
2023-04-16T23:20:14.341Z,5.66
2023-04-16T23:22:41.508Z,5.58
2023-04-16T23:25:09.184Z,5.56
2023-04-16T23:27:37.332Z,5.69
2023-04-16T23:30:06.025Z,5.67
2023-04-16T23:32:34.288Z,5.51
2023-04-16T23:35:01.408Z,5.35
2023-04-16T23:37:28.591Z,5.44
2023-04-16T23:39:57.698Z,5.30
2023-04-16T23:42:25.109Z,5.26
2023-04-16T23:44:52.129Z,5.31
2023-04-16T23:47:19.462Z,5.26
2023-04-16T23:49:46.511Z,5.24
2023-04-16T23:52:13.418Z,4.91
2023-04-16T23:54:40.843Z,4.75
2023-04-16T23:57:07.786Z,4.76
2023-04-16T23:59:35.019Z,4.96
